sensor_id;sensor_type;location;lat;lon;timestamp;temperature;humidity
4647;DHT22;2336;47.822;7.564;2023-03-23T00:01:29;15.20;93.30
4647;DHT22;2336;47.822;7.564;2023-03-23T00:03:57;15.10;93.00
4647;DHT22;2336;47.822;7.564;2023-03-23T00:06:26;15.10;93.20
4647;DHT22;2336;47.822;7.564;2023-03-23T00:09:00;15.10;93.20
4647;DHT22;2336;47.822;7.564;2023-03-23T00:11:31;15.00;93.30
4647;DHT22;2336;47.822;7.564;2023-03-23T00:14:00;15.10;93.20
4647;DHT22;2336;47.822;7.564;2023-03-23T00:16:29;15.10;93.60
4647;DHT22;2336;47.822;7.564;2023-03-23T00:18:59;15.10;93.60
4647;DHT22;2336;47.822;7.564;2023-03-23T00:21:27;15.00;93.70
4647;DHT22;2336;47.822;7.564;2023-03-23T00:24:01;15.10;93.40
4647;DHT22;2336;47.822;7.564;2023-03-23T00:26:28;15.10;93.30
4647;DHT22;2336;47.822;7.564;2023-03-23T00:29:01;15.20;93.30
4647;DHT22;2336;47.822;7.564;2023-03-23T00:31:28;15.10;93.30
4647;DHT22;2336;47.822;7.564;2023-03-23T00:33:57;15.10;93.50
4647;DHT22;2336;47.822;7.564;2023-03-23T00:36:27;15.10;93.30
4647;DHT22;2336;47.822;7.564;2023-03-23T00:38:53;15.20;93.40
4647;DHT22;2336;47.822;7.564;2023-03-23T00:41:23;15.10;93.50
4647;DHT22;2336;47.822;7.564;2023-03-23T00:43:52;15.10;93.40
4647;DHT22;2336;47.822;7.564;2023-03-23T00:46:20;15.10;93.50
4647;DHT22;2336;47.822;7.564;2023-03-23T00:48:48;15.10;93.70
4647;DHT22;2336;47.822;7.564;2023-03-23T00:51:16;15.00;93.80
4647;DHT22;2336;47.822;7.564;2023-03-23T00:53:43;15.00;93.90
4647;DHT22;2336;47.822;7.564;2023-03-23T00:56:10;14.90;93.80
4647;DHT22;2336;47.822;7.564;2023-03-23T00:58:37;14.90;93.90
4647;DHT22;2336;47.822;7.564;2023-03-23T01:01:04;14.90;94.00
4647;DHT22;2336;47.822;7.564;2023-03-23T01:03:33;14.90;94.10
4647;DHT22;2336;47.822;7.564;2023-03-23T01:06:05;14.80;94.10
4647;DHT22;2336;47.822;7.564;2023-03-23T01:08:33;14.80;94.80
4647;DHT22;2336;47.822;7.564;2023-03-23T01:11:03;14.80;94.20
4647;DHT22;2336;47.822;7.564;2023-03-23T01:13:30;14.80;94.30
4647;DHT22;2336;47.822;7.564;2023-03-23T01:15:57;14.80;94.20
4647;DHT22;2336;47.822;7.564;2023-03-23T01:18:23;14.80;94.20
4647;DHT22;2336;47.822;7.564;2023-03-23T01:20:52;14.80;94.20
4647;DHT22;2336;47.822;7.564;2023-03-23T01:23:18;14.80;94.20
4647;DHT22;2336;47.822;7.564;2023-03-23T01:25:45;14.80;94.20
4647;DHT22;2336;47.822;7.564;2023-03-23T01:28:12;14.80;94.20
4647;DHT22;2336;47.822;7.564;2023-03-23T01:30:38;14.70;94.40
4647;DHT22;2336;47.822;7.564;2023-03-23T01:33:05;14.80;93.50
4647;DHT22;2336;47.822;7.564;2023-03-23T01:35:32;14.80;93.40
4647;DHT22;2336;47.822;7.564;2023-03-23T01:38:00;14.90;93.30
4647;DHT22;2336;47.822;7.564;2023-03-23T01:40:27;14.90;93.00
4647;DHT22;2336;47.822;7.564;2023-03-23T01:42:54;15.00;92.80
4647;DHT22;2336;47.822;7.564;2023-03-23T01:45:24;15.10;92.60
4647;DHT22;2336;47.822;7.564;2023-03-23T01:47:57;15.10;92.50
4647;DHT22;2336;47.822;7.564;2023-03-23T01:50:25;15.20;92.20
4647;DHT22;2336;47.822;7.564;2023-03-23T01:52:54;15.20;92.00
4647;DHT22;2336;47.822;7.564;2023-03-23T01:55:24;15.30;91.80
4647;DHT22;2336;47.822;7.564;2023-03-23T01:57:51;15.40;91.60
4647;DHT22;2336;47.822;7.564;2023-03-23T02:00:19;15.40;91.60
4647;DHT22;2336;47.822;7.564;2023-03-23T02:02:48;15.40;91.40
4647;DHT22;2336;47.822;7.564;2023-03-23T02:05:20;15.50;91.20
4647;DHT22;2336;47.822;7.564;2023-03-23T02:07:50;15.50;91.10
4647;DHT22;2336;47.822;7.564;2023-03-23T02:10:17;15.50;91.10
4647;DHT22;2336;47.822;7.564;2023-03-23T02:12:45;15.50;91.00
4647;DHT22;2336;47.822;7.564;2023-03-23T02:15:12;15.60;91.30
4647;DHT22;2336;47.822;7.564;2023-03-23T02:17:44;15.60;91.20
4647;DHT22;2336;47.822;7.564;2023-03-23T02:20:19;15.50;91.30
4647;DHT22;2336;47.822;7.564;2023-03-23T02:23:02;15.50;91.10
4647;DHT22;2336;47.822;7.564;2023-03-23T02:25:46;15.60;91.00
4647;DHT22;2336;47.822;7.564;2023-03-23T02:29:00;15.50;90.70
4647;DHT22;2336;47.822;7.564;2023-03-23T02:31:43;15.60;90.40
4647;DHT22;2336;47.822;7.564;2023-03-23T02:34:16;15.70;90.30
4647;DHT22;2336;47.822;7.564;2023-03-23T02:36:46;15.70;90.10
4647;DHT22;2336;47.822;7.564;2023-03-23T02:39:18;15.80;90.00
4647;DHT22;2336;47.822;7.564;2023-03-23T02:41:50;15.80;89.40
4647;DHT22;2336;47.822;7.564;2023-03-23T02:44:19;15.80;89.70
4647;DHT22;2336;47.822;7.564;2023-03-23T02:46:47;15.80;89.60
4647;DHT22;2336;47.822;7.564;2023-03-23T02:49:16;15.80;89.60
4647;DHT22;2336;47.822;7.564;2023-03-23T02:51:46;15.80;89.40
4647;DHT22;2336;47.822;7.564;2023-03-23T02:54:15;15.80;89.20
4647;DHT22;2336;47.822;7.564;2023-03-23T02:56:43;15.80;89.50
4647;DHT22;2336;47.822;7.564;2023-03-23T02:59:11;15.80;89.80
4647;DHT22;2336;47.822;7.564;2023-03-23T03:02:03;15.70;90.10
4647;DHT22;2336;47.822;7.564;2023-03-23T03:04:33;15.80;90.10
4647;DHT22;2336;47.822;7.564;2023-03-23T03:07:15;15.70;90.20
4647;DHT22;2336;47.822;7.564;2023-03-23T03:09:49;15.70;90.40
4647;DHT22;2336;47.822;7.564;2023-03-23T03:12:24;15.60;90.80
4647;DHT22;2336;47.822;7.564;2023-03-23T03:15:00;15.60;90.40
4647;DHT22;2336;47.822;7.564;2023-03-23T03:17:31;15.60;90.40
4647;DHT22;2336;47.822;7.564;2023-03-23T03:20:02;15.60;90.50
4647;DHT22;2336;47.822;7.564;2023-03-23T03:22:33;15.60;90.50
4647;DHT22;2336;47.822;7.564;2023-03-23T03:25:04;15.60;90.60
4647;DHT22;2336;47.822;7.564;2023-03-23T03:27:31;15.60;90.40
4647;DHT22;2336;47.822;7.564;2023-03-23T03:29:59;15.60;90.50
4647;DHT22;2336;47.822;7.564;2023-03-23T03:32:31;15.60;90.30
4647;DHT22;2336;47.822;7.564;2023-03-23T03:35:03;15.60;90.20
4647;DHT22;2336;47.822;7.564;2023-03-23T03:37:34;15.70;90.00
4647;DHT22;2336;47.822;7.564;2023-03-23T03:40:03;15.70;90.10
4647;DHT22;2336;47.822;7.564;2023-03-23T03:42:33;15.70;90.50
4647;DHT22;2336;47.822;7.564;2023-03-23T03:45:00;15.70;90.10
4647;DHT22;2336;47.822;7.564;2023-03-23T03:47:27;15.70;90.30
4647;DHT22;2336;47.822;7.564;2023-03-23T03:49:53;15.60;90.20
4647;DHT22;2336;47.822;7.564;2023-03-23T03:52:22;15.70;90.20
4647;DHT22;2336;47.822;7.564;2023-03-23T03:54:48;15.70;89.80
4647;DHT22;2336;47.822;7.564;2023-03-23T03:57:15;15.70;89.80
4647;DHT22;2336;47.822;7.564;2023-03-23T03:59:43;15.70;89.70
4647;DHT22;2336;47.822;7.564;2023-03-23T04:02:11;15.80;89.10
4647;DHT22;2336;47.822;7.564;2023-03-23T04:04:40;15.90;89.50
4647;DHT22;2336;47.822;7.564;2023-03-23T04:07:07;15.90;89.10
4647;DHT22;2336;47.822;7.564;2023-03-23T04:09:37;15.90;89.30
4647;DHT22;2336;47.822;7.564;2023-03-23T04:12:04;15.90;89.60
4647;DHT22;2336;47.822;7.564;2023-03-23T04:14:31;15.80;90.30
4647;DHT22;2336;47.822;7.564;2023-03-23T04:16:58;15.80;90.00
4647;DHT22;2336;47.822;7.564;2023-03-23T04:19:25;15.80;90.10
4647;DHT22;2336;47.822;7.564;2023-03-23T04:21:53;15.80;90.40
4647;DHT22;2336;47.822;7.564;2023-03-23T04:24:20;15.80;90.30
4647;DHT22;2336;47.822;7.564;2023-03-23T04:26:50;15.80;90.50
4647;DHT22;2336;47.822;7.564;2023-03-23T04:29:19;15.70;90.60
4647;DHT22;2336;47.822;7.564;2023-03-23T04:31:46;15.70;90.30
4647;DHT22;2336;47.822;7.564;2023-03-23T04:34:16;15.60;90.50
4647;DHT22;2336;47.822;7.564;2023-03-23T04:36:43;15.50;90.80
4647;DHT22;2336;47.822;7.564;2023-03-23T04:39:11;15.50;91.00
4647;DHT22;2336;47.822;7.564;2023-03-23T04:41:38;15.40;91.60
4647;DHT22;2336;47.822;7.564;2023-03-23T04:44:07;15.40;91.00
4647;DHT22;2336;47.822;7.564;2023-03-23T04:46:34;15.40;91.10
4647;DHT22;2336;47.822;7.564;2023-03-23T04:49:02;15.30;91.40
4647;DHT22;2336;47.822;7.564;2023-03-23T04:51:29;15.30;91.50
4647;DHT22;2336;47.822;7.564;2023-03-23T04:53:56;15.30;91.50
4647;DHT22;2336;47.822;7.564;2023-03-23T04:56:23;15.20;91.60
4647;DHT22;2336;47.822;7.564;2023-03-23T04:58:50;15.20;91.90
4647;DHT22;2336;47.822;7.564;2023-03-23T05:01:18;15.20;91.80
4647;DHT22;2336;47.822;7.564;2023-03-23T05:03:45;15.20;91.90
4647;DHT22;2336;47.822;7.564;2023-03-23T05:06:11;15.10;92.50
4647;DHT22;2336;47.822;7.564;2023-03-23T05:08:38;15.10;92.70
4647;DHT22;2336;47.822;7.564;2023-03-23T05:11:06;15.00;92.80
4647;DHT22;2336;47.822;7.564;2023-03-23T05:13:33;14.90;93.00
4647;DHT22;2336;47.822;7.564;2023-03-23T05:16:03;14.90;93.20
4647;DHT22;2336;47.822;7.564;2023-03-23T05:18:32;14.80;93.20
4647;DHT22;2336;47.822;7.564;2023-03-23T05:21:00;14.80;93.40
4647;DHT22;2336;47.822;7.564;2023-03-23T05:23:27;14.70;93.30
4647;DHT22;2336;47.822;7.564;2023-03-23T05:25:57;14.70;93.70
4647;DHT22;2336;47.822;7.564;2023-03-23T05:28:26;14.60;93.80
4647;DHT22;2336;47.822;7.564;2023-03-23T05:30:54;14.70;93.70
4647;DHT22;2336;47.822;7.564;2023-03-23T05:33:22;14.70;93.80
4647;DHT22;2336;47.822;7.564;2023-03-23T05:35:50;14.70;93.80
4647;DHT22;2336;47.822;7.564;2023-03-23T05:38:16;14.60;93.80
4647;DHT22;2336;47.822;7.564;2023-03-23T05:40:43;14.70;94.00
4647;DHT22;2336;47.822;7.564;2023-03-23T05:43:10;14.70;94.20
4647;DHT22;2336;47.822;7.564;2023-03-23T05:45:37;14.70;94.30
4647;DHT22;2336;47.822;7.564;2023-03-23T05:48:04;14.60;94.30
4647;DHT22;2336;47.822;7.564;2023-03-23T05:50:31;14.60;94.30
4647;DHT22;2336;47.822;7.564;2023-03-23T05:52:59;14.60;94.40
4647;DHT22;2336;47.822;7.564;2023-03-23T05:55:27;14.60;94.70
4647;DHT22;2336;47.822;7.564;2023-03-23T05:57:53;14.60;94.80
4647;DHT22;2336;47.822;7.564;2023-03-23T06:00:20;14.60;94.80
4647;DHT22;2336;47.822;7.564;2023-03-23T06:02:49;14.60;95.10
4647;DHT22;2336;47.822;7.564;2023-03-23T06:05:16;14.60;95.10
4647;DHT22;2336;47.822;7.564;2023-03-23T06:07:43;14.70;95.10
4647;DHT22;2336;47.822;7.564;2023-03-23T06:10:11;14.70;95.20
4647;DHT22;2336;47.822;7.564;2023-03-23T06:12:38;14.70;95.30
4647;DHT22;2336;47.822;7.564;2023-03-23T06:15:07;14.70;95.50
4647;DHT22;2336;47.822;7.564;2023-03-23T06:17:34;14.70;95.30
4647;DHT22;2336;47.822;7.564;2023-03-23T06:20:01;14.60;95.50
4647;DHT22;2336;47.822;7.564;2023-03-23T06:22:30;14.60;95.40
4647;DHT22;2336;47.822;7.564;2023-03-23T06:24:56;14.60;95.50
4647;DHT22;2336;47.822;7.564;2023-03-23T06:27:24;14.60;95.80
4647;DHT22;2336;47.822;7.564;2023-03-23T06:29:51;14.60;95.70
4647;DHT22;2336;47.822;7.564;2023-03-23T06:32:18;14.60;95.80
4647;DHT22;2336;47.822;7.564;2023-03-23T06:34:45;14.60;95.90
4647;DHT22;2336;47.822;7.564;2023-03-23T06:37:13;14.70;95.70
4647;DHT22;2336;47.822;7.564;2023-03-23T06:39:41;14.80;95.70
4647;DHT22;2336;47.822;7.564;2023-03-23T06:42:09;14.80;95.70
4647;DHT22;2336;47.822;7.564;2023-03-23T06:44:38;14.80;95.80
4647;DHT22;2336;47.822;7.564;2023-03-23T06:47:05;14.90;95.90
4647;DHT22;2336;47.822;7.564;2023-03-23T06:49:33;14.90;96.00
4647;DHT22;2336;47.822;7.564;2023-03-23T06:51:59;14.80;96.00
4647;DHT22;2336;47.822;7.564;2023-03-23T06:54:27;14.90;96.00
4647;DHT22;2336;47.822;7.564;2023-03-23T06:56:54;14.80;96.10
4647;DHT22;2336;47.822;7.564;2023-03-23T06:59:21;14.80;96.20
4647;DHT22;2336;47.822;7.564;2023-03-23T07:01:49;14.80;96.30
4647;DHT22;2336;47.822;7.564;2023-03-23T07:04:16;14.80;96.10
4647;DHT22;2336;47.822;7.564;2023-03-23T07:06:43;14.80;96.40
4647;DHT22;2336;47.822;7.564;2023-03-23T07:09:10;14.90;96.40
4647;DHT22;2336;47.822;7.564;2023-03-23T07:11:37;14.80;96.40
4647;DHT22;2336;47.822;7.564;2023-03-23T07:14:04;14.90;96.50
4647;DHT22;2336;47.822;7.564;2023-03-23T07:16:31;14.90;96.60
4647;DHT22;2336;47.822;7.564;2023-03-23T07:18:59;14.90;96.70
4647;DHT22;2336;47.822;7.564;2023-03-23T07:21:26;15.00;96.70
4647;DHT22;2336;47.822;7.564;2023-03-23T07:23:52;15.00;96.60
4647;DHT22;2336;47.822;7.564;2023-03-23T07:26:19;15.00;96.60
4647;DHT22;2336;47.822;7.564;2023-03-23T07:28:46;15.10;96.90
4647;DHT22;2336;47.822;7.564;2023-03-23T07:31:13;15.10;97.00
4647;DHT22;2336;47.822;7.564;2023-03-23T07:33:40;15.10;97.00
4647;DHT22;2336;47.822;7.564;2023-03-23T07:36:09;15.10;96.90
4647;DHT22;2336;47.822;7.564;2023-03-23T07:38:36;15.00;97.10
4647;DHT22;2336;47.822;7.564;2023-03-23T07:41:04;15.00;97.60
4647;DHT22;2336;47.822;7.564;2023-03-23T07:43:31;15.00;98.30
4647;DHT22;2336;47.822;7.564;2023-03-23T07:45:58;15.10;98.50
4647;DHT22;2336;47.822;7.564;2023-03-23T07:48:25;15.00;99.20
4647;DHT22;2336;47.822;7.564;2023-03-23T07:50:52;15.10;99.50
4647;DHT22;2336;47.822;7.564;2023-03-23T07:53:20;15.00;99.90
4647;DHT22;2336;47.822;7.564;2023-03-23T07:55:48;15.00;99.90
4647;DHT22;2336;47.822;7.564;2023-03-23T07:58:15;15.00;99.90
4647;DHT22;2336;47.822;7.564;2023-03-23T08:00:45;15.00;99.90
4647;DHT22;2336;47.822;7.564;2023-03-23T08:03:14;15.00;99.90
4647;DHT22;2336;47.822;7.564;2023-03-23T08:05:41;15.00;99.90
4647;DHT22;2336;47.822;7.564;2023-03-23T08:08:08;15.00;99.90
4647;DHT22;2336;47.822;7.564;2023-03-23T08:10:37;15.10;99.90
4647;DHT22;2336;47.822;7.564;2023-03-23T08:13:04;15.10;99.90
4647;DHT22;2336;47.822;7.564;2023-03-23T08:15:31;15.10;99.90
4647;DHT22;2336;47.822;7.564;2023-03-23T08:18:03;15.20;99.90
4647;DHT22;2336;47.822;7.564;2023-03-23T08:20:30;15.10;99.90
4647;DHT22;2336;47.822;7.564;2023-03-23T08:22:58;15.10;99.90
4647;DHT22;2336;47.822;7.564;2023-03-23T08:25:26;15.10;99.90
4647;DHT22;2336;47.822;7.564;2023-03-23T08:27:54;15.00;99.90
4647;DHT22;2336;47.822;7.564;2023-03-23T08:30:21;15.10;99.90
4647;DHT22;2336;47.822;7.564;2023-03-23T08:32:48;15.10;99.90
4647;DHT22;2336;47.822;7.564;2023-03-23T08:35:16;15.00;99.90
4647;DHT22;2336;47.822;7.564;2023-03-23T08:37:43;15.10;99.90
4647;DHT22;2336;47.822;7.564;2023-03-23T08:40:13;15.10;99.90
4647;DHT22;2336;47.822;7.564;2023-03-23T08:42:41;15.10;99.90
4647;DHT22;2336;47.822;7.564;2023-03-23T08:45:12;15.00;99.90
4647;DHT22;2336;47.822;7.564;2023-03-23T08:47:41;15.10;99.90
4647;DHT22;2336;47.822;7.564;2023-03-23T08:50:11;15.20;99.90
4647;DHT22;2336;47.822;7.564;2023-03-23T08:52:39;15.20;99.90
4647;DHT22;2336;47.822;7.564;2023-03-23T08:55:06;15.30;99.90
4647;DHT22;2336;47.822;7.564;2023-03-23T08:57:34;15.30;99.90
4647;DHT22;2336;47.822;7.564;2023-03-23T09:00:02;15.40;99.90
4647;DHT22;2336;47.822;7.564;2023-03-23T09:02:41;15.50;99.90
4647;DHT22;2336;47.822;7.564;2023-03-23T09:05:08;15.50;99.90
4647;DHT22;2336;47.822;7.564;2023-03-23T09:07:36;15.50;99.90
4647;DHT22;2336;47.822;7.564;2023-03-23T09:10:04;15.50;99.90
4647;DHT22;2336;47.822;7.564;2023-03-23T09:12:30;15.50;99.90
4647;DHT22;2336;47.822;7.564;2023-03-23T09:14:57;15.60;99.90
4647;DHT22;2336;47.822;7.564;2023-03-23T09:17:24;15.70;99.90
4647;DHT22;2336;47.822;7.564;2023-03-23T09:19:52;15.70;99.90
4647;DHT22;2336;47.822;7.564;2023-03-23T09:22:19;15.80;99.50
4647;DHT22;2336;47.822;7.564;2023-03-23T09:24:49;15.80;99.50
4647;DHT22;2336;47.822;7.564;2023-03-23T09:27:16;15.80;99.30
4647;DHT22;2336;47.822;7.564;2023-03-23T09:29:44;15.90;99.70
4647;DHT22;2336;47.822;7.564;2023-03-23T09:32:14;15.90;99.50
4647;DHT22;2336;47.822;7.564;2023-03-23T09:34:41;16.00;99.20
4647;DHT22;2336;47.822;7.564;2023-03-23T09:37:09;16.10;99.10
4647;DHT22;2336;47.822;7.564;2023-03-23T09:39:38;16.20;98.90
4647;DHT22;2336;47.822;7.564;2023-03-23T09:42:23;16.20;98.40
4647;DHT22;2336;47.822;7.564;2023-03-23T09:45:04;16.30;98.40
4647;DHT22;2336;47.822;7.564;2023-03-23T09:47:38;16.30;98.20
4647;DHT22;2336;47.822;7.564;2023-03-23T09:50:10;16.40;98.20
4647;DHT22;2336;47.822;7.564;2023-03-23T09:52:43;16.40;98.50
4647;DHT22;2336;47.822;7.564;2023-03-23T09:55:13;16.50;98.30
4647;DHT22;2336;47.822;7.564;2023-03-23T09:57:49;16.50;97.80
4647;DHT22;2336;47.822;7.564;2023-03-23T10:00:21;16.60;98.00
4647;DHT22;2336;47.822;7.564;2023-03-23T10:02:55;16.70;97.60
4647;DHT22;2336;47.822;7.564;2023-03-23T10:05:32;16.90;97.40
4647;DHT22;2336;47.822;7.564;2023-03-23T10:08:05;17.10;97.10
4647;DHT22;2336;47.822;7.564;2023-03-23T10:10:40;17.20;96.20
4647;DHT22;2336;47.822;7.564;2023-03-23T10:13:17;17.20;96.70
4647;DHT22;2336;47.822;7.564;2023-03-23T10:15:46;17.20;96.80
4647;DHT22;2336;47.822;7.564;2023-03-23T10:18:17;17.30;96.80
4647;DHT22;2336;47.822;7.564;2023-03-23T10:20:48;17.50;97.30
4647;DHT22;2336;47.822;7.564;2023-03-23T10:23:39;17.50;96.60
4647;DHT22;2336;47.822;7.564;2023-03-23T10:26:12;17.50;96.60
4647;DHT22;2336;47.822;7.564;2023-03-23T10:28:43;17.60;96.60
4647;DHT22;2336;47.822;7.564;2023-03-23T10:31:13;17.80;96.50
4647;DHT22;2336;47.822;7.564;2023-03-23T10:33:43;17.90;96.30
4647;DHT22;2336;47.822;7.564;2023-03-23T10:36:14;18.20;96.60
4647;DHT22;2336;47.822;7.564;2023-03-23T10:38:47;18.50;96.00
4647;DHT22;2336;47.822;7.564;2023-03-23T10:41:16;18.80;95.40
4647;DHT22;2336;47.822;7.564;2023-03-23T10:43:45;18.70;94.80
4647;DHT22;2336;47.822;7.564;2023-03-23T10:46:21;18.80;95.30
4647;DHT22;2336;47.822;7.564;2023-03-23T10:48:50;18.80;95.00
4647;DHT22;2336;47.822;7.564;2023-03-23T10:51:22;18.90;94.80
4647;DHT22;2336;47.822;7.564;2023-03-23T10:53:56;19.00;94.70
4647;DHT22;2336;47.822;7.564;2023-03-23T10:56:26;19.20;94.60
4647;DHT22;2336;47.822;7.564;2023-03-23T10:58:53;19.30;94.30
4647;DHT22;2336;47.822;7.564;2023-03-23T11:01:30;19.60;94.00
4647;DHT22;2336;47.822;7.564;2023-03-23T11:03:57;19.80;93.50
4647;DHT22;2336;47.822;7.564;2023-03-23T11:06:30;19.80;93.20
4647;DHT22;2336;47.822;7.564;2023-03-23T11:09:03;20.00;94.20
4647;DHT22;2336;47.822;7.564;2023-03-23T11:11:31;20.30;92.70
4647;DHT22;2336;47.822;7.564;2023-03-23T11:13:59;20.80;91.70
4647;DHT22;2336;47.822;7.564;2023-03-23T11:16:28;20.90;90.80
4647;DHT22;2336;47.822;7.564;2023-03-23T11:18:57;21.10;90.90
4647;DHT22;2336;47.822;7.564;2023-03-23T11:21:25;21.20;91.60
4647;DHT22;2336;47.822;7.564;2023-03-23T11:23:55;21.10;90.40
4647;DHT22;2336;47.822;7.564;2023-03-23T11:26:26;20.90;90.40
4647;DHT22;2336;47.822;7.564;2023-03-23T11:28:57;20.80;89.60
4647;DHT22;2336;47.822;7.564;2023-03-23T11:31:30;20.70;89.40
4647;DHT22;2336;47.822;7.564;2023-03-23T11:33:59;20.70;90.20
4647;DHT22;2336;47.822;7.564;2023-03-23T11:36:35;20.60;89.40
4647;DHT22;2336;47.822;7.564;2023-03-23T11:39:03;20.50;90.00
4647;DHT22;2336;47.822;7.564;2023-03-23T11:41:35;20.50;89.20
4647;DHT22;2336;47.822;7.564;2023-03-23T11:44:08;20.30;89.50
4647;DHT22;2336;47.822;7.564;2023-03-23T11:46:47;20.10;90.10
4647;DHT22;2336;47.822;7.564;2023-03-23T11:49:24;19.80;89.70
4647;DHT22;2336;47.822;7.564;2023-03-23T11:51:55;19.50;90.40
4647;DHT22;2336;47.822;7.564;2023-03-23T11:54:29;19.40;90.10
4647;DHT22;2336;47.822;7.564;2023-03-23T11:56:57;19.30;90.50
4647;DHT22;2336;47.822;7.564;2023-03-23T11:59:29;19.40;89.90
4647;DHT22;2336;47.822;7.564;2023-03-23T12:02:08;19.50;90.00
4647;DHT22;2336;47.822;7.564;2023-03-23T12:04:55;19.50;90.60
4647;DHT22;2336;47.822;7.564;2023-03-23T12:07:49;19.40;90.40
4647;DHT22;2336;47.822;7.564;2023-03-23T12:10:25;19.40;90.70
4647;DHT22;2336;47.822;7.564;2023-03-23T12:13:05;19.40;90.40
4647;DHT22;2336;47.822;7.564;2023-03-23T12:15:38;19.30;90.60
4647;DHT22;2336;47.822;7.564;2023-03-23T12:18:15;19.30;90.60
4647;DHT22;2336;47.822;7.564;2023-03-23T12:20:53;19.20;90.70
4647;DHT22;2336;47.822;7.564;2023-03-23T12:23:23;19.00;90.90
4647;DHT22;2336;47.822;7.564;2023-03-23T12:26:14;19.00;91.00
4647;DHT22;2336;47.822;7.564;2023-03-23T12:28:56;19.00;91.40
4647;DHT22;2336;47.822;7.564;2023-03-23T12:31:30;19.00;91.30
4647;DHT22;2336;47.822;7.564;2023-03-23T12:34:01;19.10;91.60
4647;DHT22;2336;47.822;7.564;2023-03-23T12:36:39;19.10;91.50
4647;DHT22;2336;47.822;7.564;2023-03-23T12:42:02;18.90;91.80
4647;DHT22;2336;47.822;7.564;2023-03-23T12:44:35;18.90;92.00
4647;DHT22;2336;47.822;7.564;2023-03-23T12:47:13;18.70;91.70
4647;DHT22;2336;47.822;7.564;2023-03-23T12:49:47;18.70;92.00
4647;DHT22;2336;47.822;7.564;2023-03-23T12:52:19;18.60;92.10
4647;DHT22;2336;47.822;7.564;2023-03-23T12:54:51;18.60;91.30
4647;DHT22;2336;47.822;7.564;2023-03-23T12:57:25;18.50;91.70
4647;DHT22;2336;47.822;7.564;2023-03-23T13:00:02;18.50;91.70
4647;DHT22;2336;47.822;7.564;2023-03-23T13:02:39;18.60;92.10
4647;DHT22;2336;47.822;7.564;2023-03-23T13:05:11;18.60;92.00
4647;DHT22;2336;47.822;7.564;2023-03-23T13:07:45;18.60;91.40
4647;DHT22;2336;47.822;7.564;2023-03-23T13:10:19;18.70;91.20
4647;DHT22;2336;47.822;7.564;2023-03-23T13:12:47;18.60;90.50
4647;DHT22;2336;47.822;7.564;2023-03-23T13:15:24;18.60;90.30
4647;DHT22;2336;47.822;7.564;2023-03-23T13:17:58;18.50;88.80
4647;DHT22;2336;47.822;7.564;2023-03-23T13:20:40;18.50;88.90
4647;DHT22;2336;47.822;7.564;2023-03-23T13:23:14;18.40;89.10
4647;DHT22;2336;47.822;7.564;2023-03-23T13:25:49;18.50;89.50
4647;DHT22;2336;47.822;7.564;2023-03-23T13:28:19;18.70;89.40
4647;DHT22;2336;47.822;7.564;2023-03-23T13:31:12;18.80;89.70
4647;DHT22;2336;47.822;7.564;2023-03-23T13:33:45;18.80;90.20
4647;DHT22;2336;47.822;7.564;2023-03-23T13:36:14;18.80;89.30
4647;DHT22;2336;47.822;7.564;2023-03-23T13:38:45;18.90;89.10
4647;DHT22;2336;47.822;7.564;2023-03-23T13:41:17;19.00;89.80
4647;DHT22;2336;47.822;7.564;2023-03-23T13:43:45;18.90;88.50
4647;DHT22;2336;47.822;7.564;2023-03-23T13:46:25;18.90;88.80
4647;DHT22;2336;47.822;7.564;2023-03-23T13:49:13;18.90;89.00
4647;DHT22;2336;47.822;7.564;2023-03-23T13:51:59;18.80;89.50
4647;DHT22;2336;47.822;7.564;2023-03-23T13:54:31;18.70;89.40
4647;DHT22;2336;47.822;7.564;2023-03-23T13:56:59;18.60;89.10
4647;DHT22;2336;47.822;7.564;2023-03-23T13:59:32;18.50;90.00
4647;DHT22;2336;47.822;7.564;2023-03-23T14:05:30;18.40;90.10
4647;DHT22;2336;47.822;7.564;2023-03-23T14:07:58;18.40;90.10
4647;DHT22;2336;47.822;7.564;2023-03-23T14:10:33;18.30;90.40
4647;DHT22;2336;47.822;7.564;2023-03-23T14:13:01;18.20;90.60
4647;DHT22;2336;47.822;7.564;2023-03-23T14:15:29;18.20;91.00
4647;DHT22;2336;47.822;7.564;2023-03-23T14:17:57;18.20;91.00
4647;DHT22;2336;47.822;7.564;2023-03-23T14:20:26;18.10;90.90
4647;DHT22;2336;47.822;7.564;2023-03-23T14:22:57;18.10;90.40
4647;DHT22;2336;47.822;7.564;2023-03-23T14:25:27;18.10;90.80
4647;DHT22;2336;47.822;7.564;2023-03-23T14:27:55;18.00;91.00
4647;DHT22;2336;47.822;7.564;2023-03-23T14:30:24;18.00;91.00
4647;DHT22;2336;47.822;7.564;2023-03-23T14:32:51;18.00;91.30
4647;DHT22;2336;47.822;7.564;2023-03-23T14:35:23;18.00;91.50
4647;DHT22;2336;47.822;7.564;2023-03-23T14:37:52;18.10;91.10
4647;DHT22;2336;47.822;7.564;2023-03-23T14:40:21;18.10;91.00
4647;DHT22;2336;47.822;7.564;2023-03-23T14:42:50;18.00;90.90
4647;DHT22;2336;47.822;7.564;2023-03-23T14:45:21;17.90;91.10
4647;DHT22;2336;47.822;7.564;2023-03-23T14:47:49;17.90;91.10
4647;DHT22;2336;47.822;7.564;2023-03-23T14:50:26;17.90;91.00
4647;DHT22;2336;47.822;7.564;2023-03-23T14:52:57;17.80;91.30
4647;DHT22;2336;47.822;7.564;2023-03-23T14:55:26;17.80;91.60
4647;DHT22;2336;47.822;7.564;2023-03-23T14:57:54;17.70;91.80
4647;DHT22;2336;47.822;7.564;2023-03-23T15:00:23;17.80;92.10
4647;DHT22;2336;47.822;7.564;2023-03-23T15:02:53;17.80;92.20
4647;DHT22;2336;47.822;7.564;2023-03-23T15:05:23;17.80;92.10
4647;DHT22;2336;47.822;7.564;2023-03-23T15:07:55;17.80;92.40
4647;DHT22;2336;47.822;7.564;2023-03-23T15:10:24;17.80;92.50
4647;DHT22;2336;47.822;7.564;2023-03-23T15:12:51;17.80;92.50
4647;DHT22;2336;47.822;7.564;2023-03-23T15:15:25;17.80;92.80
4647;DHT22;2336;47.822;7.564;2023-03-23T15:17:52;17.80;93.00
4647;DHT22;2336;47.822;7.564;2023-03-23T15:20:23;17.80;93.10
4647;DHT22;2336;47.822;7.564;2023-03-23T15:22:50;17.80;93.40
4647;DHT22;2336;47.822;7.564;2023-03-23T15:25:19;17.80;93.60
4647;DHT22;2336;47.822;7.564;2023-03-23T15:27:52;17.80;93.60
4647;DHT22;2336;47.822;7.564;2023-03-23T15:30:31;17.80;93.80
4647;DHT22;2336;47.822;7.564;2023-03-23T15:33:04;17.70;94.00
4647;DHT22;2336;47.822;7.564;2023-03-23T15:35:34;17.70;94.20
4647;DHT22;2336;47.822;7.564;2023-03-23T15:38:03;17.70;94.50
4647;DHT22;2336;47.822;7.564;2023-03-23T15:40:33;17.70;94.40
4647;DHT22;2336;47.822;7.564;2023-03-23T15:43:15;17.60;94.60
4647;DHT22;2336;47.822;7.564;2023-03-23T15:45:55;17.60;94.80
4647;DHT22;2336;47.822;7.564;2023-03-23T15:48:26;17.60;94.80
4647;DHT22;2336;47.822;7.564;2023-03-23T15:50:53;17.60;94.70
4647;DHT22;2336;47.822;7.564;2023-03-23T15:53:27;17.50;94.60
4647;DHT22;2336;47.822;7.564;2023-03-23T15:55:54;17.50;94.30
4647;DHT22;2336;47.822;7.564;2023-03-23T15:58:22;17.50;94.70
4647;DHT22;2336;47.822;7.564;2023-03-23T16:00:50;17.60;94.50
4647;DHT22;2336;47.822;7.564;2023-03-23T16:03:21;17.50;94.30
4647;DHT22;2336;47.822;7.564;2023-03-23T16:05:50;17.50;94.30
4647;DHT22;2336;47.822;7.564;2023-03-23T16:08:17;17.50;94.70
4647;DHT22;2336;47.822;7.564;2023-03-23T16:10:43;17.50;94.60
4647;DHT22;2336;47.822;7.564;2023-03-23T16:13:10;17.40;94.60
4647;DHT22;2336;47.822;7.564;2023-03-23T16:15:38;17.40;94.60
4647;DHT22;2336;47.822;7.564;2023-03-23T16:18:05;17.40;94.80
4647;DHT22;2336;47.822;7.564;2023-03-23T16:20:32;17.40;94.80
4647;DHT22;2336;47.822;7.564;2023-03-23T16:22:58;17.30;94.90
4647;DHT22;2336;47.822;7.564;2023-03-23T16:25:25;17.30;95.00
4647;DHT22;2336;47.822;7.564;2023-03-23T16:27:52;17.30;95.00